Sign-in with your pilot id or email, or register

ICAO: EDDS Name / Country: airport Stuttgart / Germany
Latitude: 48.6903 Longitude: 9.19521
Total Arrivals:
Strict Standards: Non-static method AirportData::getarrflights() should not be called statically, assuming $this from incompatible context in /var/www/customers/vh-7192/web/home/phpvms/core/templates/airport_info.tpl on line 18
3
Total Departures:
Strict Standards: Non-static method AirportData::getdeptflights() should not be called statically, assuming $this from incompatible context in /var/www/customers/vh-7192/web/home/phpvms/core/templates/airport_info.tpl on line 21
1
Latest Arrival: MTA517 (LHBP-EDDS) Tibor Berces Latest Departure: MTA517 (EDDS-LHBP) Tibor Berces
Metar: EDDS 192020Z 00000KT CAVOK 18/15 Q1020
More info

Charts for EDDS


NOTAM


Warning: file_get_contents(http://api.vateud.net/notams/EDDS.json): failed to open stream: Redirection limit reached, aborting in /var/www/customers/vh-7192/web/home/phpvms/core/common/NOTAMSData.class.php on line 18

Warning: Invalid argument supplied for foreach() in /var/www/customers/vh-7192/web/home/phpvms/core/common/NOTAMSData.class.php on line 22

airport Stuttgart